Latest  Newer  Older  Last 2 hours slideshow  Last 24 hours slideshow  Refresh every 5 minutes 
Current image  Latest image  Rain/snow radar  Cloud coverage sat images 

All time is UTC (add 2 hours to UTC in wintertime, 3 hours to UTC in DST for Latvia local time)

2022/01/17 19:20 EVRA 171920Z 33015KT CAVOK 01/M07 Q1009 NOSIG
2022/01/17 19:20 EVLA 171920Z AUTO 33010KT 9999 FEW030/// BKN035/// 02/M04 Q1014
2022/01/17 19:20 EVVA 171920Z AUTO 33015KT 9999 SCT032 02/M04 Q1013
2022/01/17 19:20 EYKA 171920Z 33008G19KT 260V040 CAVOK M01/M08 Q1008
2022/01/17 19:20 EYPA 171920Z 34009KT 300V040 9999 FEW034 02/M04 Q1015
2022/01/17 19:20 EYSA 171920Z 32017KT CAVOK M03/M07 Q1010 NOSIG
2022/01/17 19:20 EYVI 171920Z 34018G32KT 9999 SCT024 M03/M07 Q1005 NOSIG
2022/01/17 16:20 EEKA 171620Z 33025KT CAVOK 00/M06 Q1006
2022/01/17 19:20 EEKE 171920Z AUTO 32009KT 280V360 9999NDV FEW038 01/M04 Q1010

2022/01/17 19:20 EETN 171920Z 33017G27KT 9999 DRSN NSC M01/M05 Q1005 NOSIG
2022/01/17 19:20 EETU 171920Z AUTO 31017G28KT 9999 NCD M03/M08 Q1002
   RIGA AIRPORT     EVRA               56 55N  023 58E   10   X     T          6 LV
   LIEPAJA INTL     EVLA        26406  56 31N  021 06E    4   X                8 LV
   VENTPILS         EVVA               57 21N  021 33E    6   X                8 LV
   KAUNAS           EYKA               54 54N  023 55E   77   X     T          6 LT
   PALANGA INTL     EYPA               55 55N  021 03E   10   X                6 LT
   SIAULIAI INTL    EYSA               55 54N  023 24E  135   X     T          6 LT
   VILNIUS INTL     EYVI        26730  54 38N  025 17E  197   X     T          6 LT
   KARDLA           EEKA        26116  58 59N  022 50E    4   X                8 EE
   KURESSAARE       EEKE               58 14N  022 31E    4   X                8 EE
   PARNU            EEPU               58 25N  024 28E   14   X                8 EE
   TALLINN          EETN        26038  59 24N  024 49E   40   X     T          8 EE
   TARTU            EETU               58 19N  026 41E   67   X                8 EE